sensor_id;sensor_type;location;lat;lon;timestamp;P1;durP1;ratioP1;P2;durP2;ratioP2
60205;SDS011;46072;51.554;6.846;2022-11-21T00:00:40;86.30;;;26.73;;
60205;SDS011;46072;51.554;6.846;2022-11-21T00:03:08;114.55;;;32.40;;
60205;SDS011;46072;51.554;6.846;2022-11-21T00:05:37;102.70;;;31.75;;
60205;SDS011;46072;51.554;6.846;2022-11-21T00:08:05;98.95;;;30.90;;
60205;SDS011;46072;51.554;6.846;2022-11-21T00:10:32;112.72;;;31.23;;
60205;SDS011;46072;51.554;6.846;2022-11-21T00:12:59;96.15;;;30.42;;
60205;SDS011;46072;51.554;6.846;2022-11-21T00:15:25;100.40;;;31.27;;
60205;SDS011;46072;51.554;6.846;2022-11-21T00:17:52;113.80;;;32.03;;
60205;SDS011;46072;51.554;6.846;2022-11-21T00:20:19;117.57;;;35.30;;
60205;SDS011;46072;51.554;6.846;2022-11-21T00:22:46;111.68;;;33.38;;
60205;SDS011;46072;51.554;6.846;2022-11-21T00:25:14;97.70;;;30.70;;
60205;SDS011;46072;51.554;6.846;2022-11-21T00:27:40;109.75;;;32.45;;
60205;SDS011;46072;51.554;6.846;2022-11-21T00:30:08;118.30;;;34.83;;
60205;SDS011;46072;51.554;6.846;2022-11-21T00:32:35;109.35;;;32.28;;
60205;SDS011;46072;51.554;6.846;2022-11-21T00:35:02;111.85;;;33.90;;
60205;SDS011;46072;51.554;6.846;2022-11-21T00:37:30;107.97;;;33.85;;
60205;SDS011;46072;51.554;6.846;2022-11-21T00:39:57;107.00;;;31.67;;
60205;SDS011;46072;51.554;6.846;2022-11-21T00:42:24;98.05;;;30.20;;
60205;SDS011;46072;51.554;6.846;2022-11-21T00:44:50;107.50;;;31.92;;
60205;SDS011;46072;51.554;6.846;2022-11-21T00:47:17;106.72;;;31.08;;
60205;SDS011;46072;51.554;6.846;2022-11-21T00:49:44;89.95;;;27.20;;
60205;SDS011;46072;51.554;6.846;2022-11-21T00:52:10;105.95;;;31.58;;
60205;SDS011;46072;51.554;6.846;2022-11-21T00:54:37;106.28;;;31.30;;
60205;SDS011;46072;51.554;6.846;2022-11-21T00:57:03;96.55;;;27.55;;
60205;SDS011;46072;51.554;6.846;2022-11-21T00:59:30;101.35;;;31.58;;
60205;SDS011;46072;51.554;6.846;2022-11-21T01:01:56;97.25;;;31.13;;
60205;SDS011;46072;51.554;6.846;2022-11-21T01:04:23;88.70;;;29.42;;
60205;SDS011;46072;51.554;6.846;2022-11-21T01:06:49;103.38;;;29.98;;
60205;SDS011;46072;51.554;6.846;2022-11-21T01:09:16;93.97;;;29.88;;
60205;SDS011;46072;51.554;6.846;2022-11-21T01:11:42;93.85;;;30.30;;
60205;SDS011;46072;51.554;6.846;2022-11-21T01:14:09;88.63;;;26.80;;
60205;SDS011;46072;51.554;6.846;2022-11-21T01:16:35;93.97;;;29.00;;
60205;SDS011;46072;51.554;6.846;2022-11-21T01:19:02;94.90;;;28.40;;
60205;SDS011;46072;51.554;6.846;2022-11-21T01:21:29;98.47;;;29.08;;
60205;SDS011;46072;51.554;6.846;2022-11-21T01:23:59;98.80;;;29.90;;
60205;SDS011;46072;51.554;6.846;2022-11-21T01:26:26;101.03;;;32.73;;
60205;SDS011;46072;51.554;6.846;2022-11-21T01:28:54;98.80;;;29.77;;
60205;SDS011;46072;51.554;6.846;2022-11-21T01:31:23;86.97;;;29.48;;
60205;SDS011;46072;51.554;6.846;2022-11-21T01:33:51;89.88;;;28.27;;
60205;SDS011;46072;51.554;6.846;2022-11-21T01:36:19;89.13;;;28.92;;
60205;SDS011;46072;51.554;6.846;2022-11-21T01:38:49;91.43;;;27.38;;
60205;SDS011;46072;51.554;6.846;2022-11-21T01:41:24;98.80;;;29.67;;
60205;SDS011;46072;51.554;6.846;2022-11-21T01:43:53;97.88;;;29.20;;
60205;SDS011;46072;51.554;6.846;2022-11-21T01:46:20;90.65;;;28.55;;
60205;SDS011;46072;51.554;6.846;2022-11-21T01:48:49;89.63;;;29.10;;
60205;SDS011;46072;51.554;6.846;2022-11-21T01:51:24;84.35;;;27.67;;
60205;SDS011;46072;51.554;6.846;2022-11-21T01:56:27;90.65;;;27.95;;
60205;SDS011;46072;51.554;6.846;2022-11-21T01:58:56;83.53;;;27.85;;
60205;SDS011;46072;51.554;6.846;2022-11-21T02:01:25;80.40;;;29.10;;
60205;SDS011;46072;51.554;6.846;2022-11-21T02:03:52;78.57;;;27.67;;
60205;SDS011;46072;51.554;6.846;2022-11-21T02:06:19;88.15;;;29.40;;
60205;SDS011;46072;51.554;6.846;2022-11-21T02:08:45;74.22;;;25.85;;
60205;SDS011;46072;51.554;6.846;2022-11-21T02:13:45;84.60;;;28.77;;
60205;SDS011;46072;51.554;6.846;2022-11-21T02:16:11;83.45;;;26.75;;
60205;SDS011;46072;51.554;6.846;2022-11-21T02:18:38;106.88;;;30.60;;
60205;SDS011;46072;51.554;6.846;2022-11-21T02:21:27;92.90;;;29.20;;
60205;SDS011;46072;51.554;6.846;2022-11-21T02:26:45;100.88;;;31.13;;
60205;SDS011;46072;51.554;6.846;2022-11-21T02:29:13;90.30;;;28.63;;
60205;SDS011;46072;51.554;6.846;2022-11-21T02:31:40;94.13;;;32.42;;
60205;SDS011;46072;51.554;6.846;2022-11-21T02:34:06;95.43;;;30.40;;
60205;SDS011;46072;51.554;6.846;2022-11-21T02:36:43;92.13;;;29.60;;
60205;SDS011;46072;51.554;6.846;2022-11-21T02:39:30;93.43;;;31.38;;
60205;SDS011;46072;51.554;6.846;2022-11-21T02:42:02;101.97;;;30.40;;
60205;SDS011;46072;51.554;6.846;2022-11-21T02:44:52;103.60;;;31.88;;
60205;SDS011;46072;51.554;6.846;2022-11-21T02:47:23;101.85;;;32.33;;
60205;SDS011;46072;51.554;6.846;2022-11-21T02:49:52;99.28;;;32.78;;
60205;SDS011;46072;51.554;6.846;2022-11-21T02:52:28;100.07;;;30.25;;
60205;SDS011;46072;51.554;6.846;2022-11-21T02:54:55;104.30;;;32.17;;
60205;SDS011;46072;51.554;6.846;2022-11-21T02:57:21;96.47;;;29.83;;
60205;SDS011;46072;51.554;6.846;2022-11-21T02:59:48;99.10;;;30.85;;
60205;SDS011;46072;51.554;6.846;2022-11-21T03:02:14;93.43;;;30.83;;
60205;SDS011;46072;51.554;6.846;2022-11-21T03:04:41;101.82;;;32.80;;
60205;SDS011;46072;51.554;6.846;2022-11-21T03:07:07;114.40;;;32.33;;
60205;SDS011;46072;51.554;6.846;2022-11-21T03:09:34;95.53;;;29.95;;
60205;SDS011;46072;51.554;6.846;2022-11-21T03:12:04;89.30;;;28.13;;
60205;SDS011;46072;51.554;6.846;2022-11-21T03:14:35;97.25;;;31.20;;
60205;SDS011;46072;51.554;6.846;2022-11-21T03:17:02;92.20;;;29.83;;
60205;SDS011;46072;51.554;6.846;2022-11-21T03:19:29;97.18;;;30.50;;
60205;SDS011;46072;51.554;6.846;2022-11-21T03:21:55;102.45;;;31.58;;
60205;SDS011;46072;51.554;6.846;2022-11-21T03:24:22;96.72;;;30.85;;
60205;SDS011;46072;51.554;6.846;2022-11-21T03:26:48;97.45;;;30.15;;
60205;SDS011;46072;51.554;6.846;2022-11-21T03:29:15;104.60;;;31.63;;
60205;SDS011;46072;51.554;6.846;2022-11-21T03:31:41;94.28;;;30.02;;
60205;SDS011;46072;51.554;6.846;2022-11-21T03:34:08;95.00;;;29.67;;
60205;SDS011;46072;51.554;6.846;2022-11-21T03:36:34;96.43;;;29.50;;
60205;SDS011;46072;51.554;6.846;2022-11-21T03:39:01;92.97;;;29.08;;
60205;SDS011;46072;51.554;6.846;2022-11-21T03:41:27;96.70;;;31.67;;
60205;SDS011;46072;51.554;6.846;2022-11-21T03:44:30;89.25;;;28.05;;
60205;SDS011;46072;51.554;6.846;2022-11-21T03:46:49;86.38;;;28.08;;
60205;SDS011;46072;51.554;6.846;2022-11-21T03:49:16;93.95;;;33.08;;
60205;SDS011;46072;51.554;6.846;2022-11-21T03:51:43;98.85;;;31.58;;
60205;SDS011;46072;51.554;6.846;2022-11-21T03:54:10;93.07;;;32.22;;
60205;SDS011;46072;51.554;6.846;2022-11-21T03:56:36;87.95;;;28.80;;
60205;SDS011;46072;51.554;6.846;2022-11-21T03:59:05;90.68;;;30.23;;
60205;SDS011;46072;51.554;6.846;2022-11-21T04:01:32;97.70;;;31.83;;
60205;SDS011;46072;51.554;6.846;2022-11-21T04:04:02;94.80;;;29.63;;
60205;SDS011;46072;51.554;6.846;2022-11-21T04:06:28;90.65;;;29.90;;
60205;SDS011;46072;51.554;6.846;2022-11-21T04:08:56;106.97;;;30.65;;
60205;SDS011;46072;51.554;6.846;2022-11-21T04:11:23;88.72;;;29.42;;
60205;SDS011;46072;51.554;6.846;2022-11-21T04:13:50;102.63;;;29.25;;
60205;SDS011;46072;51.554;6.846;2022-11-21T04:16:17;108.38;;;32.13;;
60205;SDS011;46072;51.554;6.846;2022-11-21T04:18:43;117.15;;;33.42;;
60205;SDS011;46072;51.554;6.846;2022-11-21T04:21:10;109.78;;;31.40;;
60205;SDS011;46072;51.554;6.846;2022-11-21T04:23:36;107.38;;;31.15;;
60205;SDS011;46072;51.554;6.846;2022-11-21T04:26:03;99.75;;;30.73;;
60205;SDS011;46072;51.554;6.846;2022-11-21T04:28:29;99.00;;;29.45;;
60205;SDS011;46072;51.554;6.846;2022-11-21T04:31:00;96.60;;;28.83;;
60205;SDS011;46072;51.554;6.846;2022-11-21T04:33:36;93.03;;;30.60;;
60205;SDS011;46072;51.554;6.846;2022-11-21T04:36:06;99.55;;;29.90;;
60205;SDS011;46072;51.554;6.846;2022-11-21T04:38:33;94.75;;;30.65;;
60205;SDS011;46072;51.554;6.846;2022-11-21T04:41:00;96.03;;;30.15;;
60205;SDS011;46072;51.554;6.846;2022-11-21T04:43:26;95.45;;;29.40;;
60205;SDS011;46072;51.554;6.846;2022-11-21T04:45:53;98.03;;;29.65;;
60205;SDS011;46072;51.554;6.846;2022-11-21T04:48:19;102.78;;;30.95;;
60205;SDS011;46072;51.554;6.846;2022-11-21T04:50:45;88.93;;;30.00;;
60205;SDS011;46072;51.554;6.846;2022-11-21T04:53:12;103.68;;;31.25;;
60205;SDS011;46072;51.554;6.846;2022-11-21T04:55:38;105.07;;;31.80;;
60205;SDS011;46072;51.554;6.846;2022-11-21T04:58:05;121.78;;;31.70;;
60205;SDS011;46072;51.554;6.846;2022-11-21T05:00:31;97.22;;;29.52;;
60205;SDS011;46072;51.554;6.846;2022-11-21T05:03:04;108.82;;;33.00;;
60205;SDS011;46072;51.554;6.846;2022-11-21T05:05:31;111.53;;;33.72;;
60205;SDS011;46072;51.554;6.846;2022-11-21T05:07:58;112.57;;;31.75;;
60205;SDS011;46072;51.554;6.846;2022-11-21T05:10:24;108.15;;;32.13;;
60205;SDS011;46072;51.554;6.846;2022-11-21T05:12:57;106.65;;;29.95;;
60205;SDS011;46072;51.554;6.846;2022-11-21T05:15:43;115.75;;;33.35;;
60205;SDS011;46072;51.554;6.846;2022-11-21T05:18:10;111.00;;;30.45;;
60205;SDS011;46072;51.554;6.846;2022-11-21T05:20:36;104.88;;;32.17;;
60205;SDS011;46072;51.554;6.846;2022-11-21T05:23:03;101.97;;;29.63;;
60205;SDS011;46072;51.554;6.846;2022-11-21T05:25:29;112.45;;;32.55;;
60205;SDS011;46072;51.554;6.846;2022-11-21T05:27:56;89.93;;;29.70;;
60205;SDS011;46072;51.554;6.846;2022-11-21T05:30:22;96.95;;;29.48;;
60205;SDS011;46072;51.554;6.846;2022-11-21T05:32:49;94.85;;;29.48;;
60205;SDS011;46072;51.554;6.846;2022-11-21T05:35:15;98.57;;;30.63;;
60205;SDS011;46072;51.554;6.846;2022-11-21T05:37:42;97.65;;;30.33;;
60205;SDS011;46072;51.554;6.846;2022-11-21T05:40:08;101.60;;;30.48;;
60205;SDS011;46072;51.554;6.846;2022-11-21T05:42:39;102.70;;;31.33;;
60205;SDS011;46072;51.554;6.846;2022-11-21T05:45:24;94.38;;;29.92;;
60205;SDS011;46072;51.554;6.846;2022-11-21T05:47:51;101.97;;;30.35;;
60205;SDS011;46072;51.554;6.846;2022-11-21T05:50:17;97.53;;;31.25;;
60205;SDS011;46072;51.554;6.846;2022-11-21T05:52:44;107.68;;;31.88;;
60205;SDS011;46072;51.554;6.846;2022-11-21T05:55:10;104.22;;;32.83;;
60205;SDS011;46072;51.554;6.846;2022-11-21T05:57:37;116.95;;;32.33;;
60205;SDS011;46072;51.554;6.846;2022-11-21T06:00:04;123.10;;;31.52;;
60205;SDS011;46072;51.554;6.846;2022-11-21T06:02:30;120.00;;;32.03;;
60205;SDS011;46072;51.554;6.846;2022-11-21T06:05:16;108.47;;;31.60;;
60205;SDS011;46072;51.554;6.846;2022-11-21T06:07:42;126.65;;;34.00;;
60205;SDS011;46072;51.554;6.846;2022-11-21T06:10:09;136.40;;;34.05;;
60205;SDS011;46072;51.554;6.846;2022-11-21T06:12:35;120.80;;;31.90;;
60205;SDS011;46072;51.554;6.846;2022-11-21T06:15:02;144.35;;;36.58;;
60205;SDS011;46072;51.554;6.846;2022-11-21T06:17:28;121.65;;;32.17;;
60205;SDS011;46072;51.554;6.846;2022-11-21T06:19:55;126.35;;;33.50;;
60205;SDS011;46072;51.554;6.846;2022-11-21T06:22:21;122.70;;;31.90;;
60205;SDS011;46072;51.554;6.846;2022-11-21T06:24:48;142.10;;;36.92;;
60205;SDS011;46072;51.554;6.846;2022-11-21T06:27:14;144.80;;;34.47;;
60205;SDS011;46072;51.554;6.846;2022-11-21T06:29:40;138.00;;;33.92;;
60205;SDS011;46072;51.554;6.846;2022-11-21T06:32:07;159.90;;;38.67;;
60205;SDS011;46072;51.554;6.846;2022-11-21T06:34:33;154.68;;;35.88;;
60205;SDS011;46072;51.554;6.846;2022-11-21T06:37:00;167.57;;;35.25;;
60205;SDS011;46072;51.554;6.846;2022-11-21T06:39:26;165.38;;;35.45;;
60205;SDS011;46072;51.554;6.846;2022-11-21T06:41:53;168.68;;;37.20;;
60205;SDS011;46072;51.554;6.846;2022-11-21T06:44:19;201.10;;;39.45;;
60205;SDS011;46072;51.554;6.846;2022-11-21T06:46:46;191.13;;;40.00;;
60205;SDS011;46072;51.554;6.846;2022-11-21T06:49:16;166.73;;;39.83;;
60205;SDS011;46072;51.554;6.846;2022-11-21T06:51:43;163.50;;;37.45;;
60205;SDS011;46072;51.554;6.846;2022-11-21T06:54:09;168.48;;;38.25;;
60205;SDS011;46072;51.554;6.846;2022-11-21T06:56:41;221.50;;;40.85;;
60205;SDS011;46072;51.554;6.846;2022-11-21T06:59:08;193.95;;;41.65;;
60205;SDS011;46072;51.554;6.846;2022-11-21T07:01:34;167.65;;;39.33;;
60205;SDS011;46072;51.554;6.846;2022-11-21T07:04:01;201.40;;;39.90;;
60205;SDS011;46072;51.554;6.846;2022-11-21T07:06:27;192.38;;;42.33;;
60205;SDS011;46072;51.554;6.846;2022-11-21T07:08:54;239.30;;;45.05;;
60205;SDS011;46072;51.554;6.846;2022-11-21T07:11:40;201.55;;;39.22;;
60205;SDS011;46072;51.554;6.846;2022-11-21T07:14:06;212.65;;;44.17;;
60205;SDS011;46072;51.554;6.846;2022-11-21T07:16:34;208.77;;;42.05;;
60205;SDS011;46072;51.554;6.846;2022-11-21T07:19:01;208.43;;;42.80;;
60205;SDS011;46072;51.554;6.846;2022-11-21T07:21:28;231.93;;;46.63;;
60205;SDS011;46072;51.554;6.846;2022-11-21T07:23:54;216.45;;;44.80;;
60205;SDS011;46072;51.554;6.846;2022-11-21T07:26:21;224.68;;;44.90;;
60205;SDS011;46072;51.554;6.846;2022-11-21T07:28:47;207.38;;;44.90;;
60205;SDS011;46072;51.554;6.846;2022-11-21T07:31:13;209.82;;;42.40;;
60205;SDS011;46072;51.554;6.846;2022-11-21T07:33:40;206.50;;;40.65;;
60205;SDS011;46072;51.554;6.846;2022-11-21T07:36:08;199.65;;;38.47;;
60205;SDS011;46072;51.554;6.846;2022-11-21T07:38:35;196.85;;;41.85;;
60205;SDS011;46072;51.554;6.846;2022-11-21T07:41:01;198.77;;;38.45;;
60205;SDS011;46072;51.554;6.846;2022-11-21T07:43:28;185.82;;;38.47;;
60205;SDS011;46072;51.554;6.846;2022-11-21T07:45:55;190.82;;;36.65;;
60205;SDS011;46072;51.554;6.846;2022-11-21T07:48:21;207.15;;;40.15;;
60205;SDS011;46072;51.554;6.846;2022-11-21T07:50:48;189.63;;;38.13;;
60205;SDS011;46072;51.554;6.846;2022-11-21T07:53:14;185.18;;;36.47;;
60205;SDS011;46072;51.554;6.846;2022-11-21T07:55:41;212.88;;;40.35;;
60205;SDS011;46072;51.554;6.846;2022-11-21T07:58:08;192.57;;;40.65;;
60205;SDS011;46072;51.554;6.846;2022-11-21T08:00:39;200.98;;;40.30;;
60205;SDS011;46072;51.554;6.846;2022-11-21T08:03:08;192.02;;;39.72;;
60205;SDS011;46072;51.554;6.846;2022-11-21T08:05:37;193.60;;;39.55;;
60205;SDS011;46072;51.554;6.846;2022-11-21T08:08:04;182.75;;;39.95;;
60205;SDS011;46072;51.554;6.846;2022-11-21T08:10:31;184.30;;;38.95;;
60205;SDS011;46072;51.554;6.846;2022-11-21T08:12:58;194.63;;;40.70;;
60205;SDS011;46072;51.554;6.846;2022-11-21T08:15:24;192.60;;;40.22;;
60205;SDS011;46072;51.554;6.846;2022-11-21T08:17:51;179.93;;;39.00;;
60205;SDS011;46072;51.554;6.846;2022-11-21T08:20:17;192.27;;;39.53;;
60205;SDS011;46072;51.554;6.846;2022-11-21T08:22:44;185.18;;;39.00;;
60205;SDS011;46072;51.554;6.846;2022-11-21T08:25:10;165.25;;;38.25;;
60205;SDS011;46072;51.554;6.846;2022-11-21T08:27:37;161.60;;;36.78;;
60205;SDS011;46072;51.554;6.846;2022-11-21T08:30:05;184.38;;;39.63;;
60205;SDS011;46072;51.554;6.846;2022-11-21T08:32:32;159.52;;;36.53;;
60205;SDS011;46072;51.554;6.846;2022-11-21T08:34:59;174.43;;;39.13;;
60205;SDS011;46072;51.554;6.846;2022-11-21T08:37:26;161.60;;;36.70;;
60205;SDS011;46072;51.554;6.846;2022-11-21T08:39:54;187.52;;;38.47;;
60205;SDS011;46072;51.554;6.846;2022-11-21T08:42:21;196.50;;;39.30;;
60205;SDS011;46072;51.554;6.846;2022-11-21T08:44:47;176.65;;;39.25;;
60205;SDS011;46072;51.554;6.846;2022-11-21T08:47:14;180.38;;;38.30;;
60205;SDS011;46072;51.554;6.846;2022-11-21T08:49:40;194.90;;;37.05;;
60205;SDS011;46072;51.554;6.846;2022-11-21T08:52:07;172.48;;;37.22;;
60205;SDS011;46072;51.554;6.846;2022-11-21T08:54:33;194.27;;;41.13;;
60205;SDS011;46072;51.554;6.846;2022-11-21T08:56:59;197.50;;;39.97;;
60205;SDS011;46072;51.554;6.846;2022-11-21T08:59:26;192.10;;;39.55;;
60205;SDS011;46072;51.554;6.846;2022-11-21T09:01:52;165.38;;;37.45;;
60205;SDS011;46072;51.554;6.846;2022-11-21T09:04:19;189.45;;;42.22;;
60205;SDS011;46072;51.554;6.846;2022-11-21T09:06:45;204.88;;;41.10;;
60205;SDS011;46072;51.554;6.846;2022-11-21T09:09:13;201.88;;;39.20;;
60205;SDS011;46072;51.554;6.846;2022-11-21T09:11:40;194.30;;;41.05;;
60205;SDS011;46072;51.554;6.846;2022-11-21T09:14:06;211.48;;;44.90;;
60205;SDS011;46072;51.554;6.846;2022-11-21T09:16:52;211.68;;;44.78;;
60205;SDS011;46072;51.554;6.846;2022-11-21T09:19:37;266.52;;;56.75;;
60205;SDS011;46072;51.554;6.846;2022-11-21T09:22:03;248.13;;;59.35;;
60205;SDS011;46072;51.554;6.846;2022-11-21T09:24:29;223.07;;;49.38;;
60205;SDS011;46072;51.554;6.846;2022-11-21T09:26:56;221.95;;;48.80;;
60205;SDS011;46072;51.554;6.846;2022-11-21T09:29:23;234.95;;;53.25;;
60205;SDS011;46072;51.554;6.846;2022-11-21T09:31:49;228.93;;;48.58;;
60205;SDS011;46072;51.554;6.846;2022-11-21T09:34:16;231.10;;;46.63;;
60205;SDS011;46072;51.554;6.846;2022-11-21T09:36:43;209.88;;;45.85;;
60205;SDS011;46072;51.554;6.846;2022-11-21T09:39:09;215.52;;;44.08;;
60205;SDS011;46072;51.554;6.846;2022-11-21T09:41:38;222.88;;;45.85;;
60205;SDS011;46072;51.554;6.846;2022-11-21T09:44:30;222.40;;;45.75;;
60205;SDS011;46072;51.554;6.846;2022-11-21T09:47:04;214.65;;;43.03;;
60205;SDS011;46072;51.554;6.846;2022-11-21T09:49:42;235.93;;;44.70;;
60205;SDS011;46072;51.554;6.846;2022-11-21T09:52:14;241.63;;;46.00;;
60205;SDS011;46072;51.554;6.846;2022-11-21T09:54:49;254.93;;;45.33;;
60205;SDS011;46072;51.554;6.846;2022-11-21T09:57:17;217.15;;;46.13;;
60205;SDS011;46072;51.554;6.846;2022-11-21T09:59:45;256.48;;;46.95;;
60205;SDS011;46072;51.554;6.846;2022-11-21T10:02:14;261.90;;;49.03;;
60205;SDS011;46072;51.554;6.846;2022-11-21T10:04:43;261.33;;;48.90;;
60205;SDS011;46072;51.554;6.846;2022-11-21T10:07:16;276.83;;;51.35;;
60205;SDS011;46072;51.554;6.846;2022-11-21T10:17:52;234.95;;;47.88;;
60205;SDS011;46072;51.554;6.846;2022-11-21T10:20:38;244.32;;;48.08;;
60205;SDS011;46072;51.554;6.846;2022-11-21T10:26:52;235.07;;;49.90;;
60205;SDS011;46072;51.554;6.846;2022-11-21T10:29:22;231.00;;;46.67;;
60205;SDS011;46072;51.554;6.846;2022-11-21T10:31:53;225.40;;;50.13;;
60205;SDS011;46072;51.554;6.846;2022-11-21T10:34:23;231.57;;;48.15;;
60205;SDS011;46072;51.554;6.846;2022-11-21T10:36:54;223.25;;;46.80;;
60205;SDS011;46072;51.554;6.846;2022-11-21T10:44:53;224.82;;;47.97;;
60205;SDS011;46072;51.554;6.846;2022-11-21T10:47:39;187.82;;;43.67;;
60205;SDS011;46072;51.554;6.846;2022-11-21T10:52:37;191.30;;;46.95;;
60205;SDS011;46072;51.554;6.846;2022-11-21T10:55:07;183.30;;;42.85;;
60205;SDS011;46072;51.554;6.846;2022-11-21T10:57:40;190.25;;;46.47;;
60205;SDS011;46072;51.554;6.846;2022-11-21T11:00:14;209.13;;;46.70;;
60205;SDS011;46072;51.554;6.846;2022-11-21T11:03:05;219.95;;;51.42;;
60205;SDS011;46072;51.554;6.846;2022-11-21T11:05:33;206.57;;;49.00;;
60205;SDS011;46072;51.554;6.846;2022-11-21T11:08:11;196.77;;;46.05;;
60205;SDS011;46072;51.554;6.846;2022-11-21T11:10:45;199.05;;;49.10;;
60205;SDS011;46072;51.554;6.846;2022-11-21T11:16:16;204.48;;;47.75;;
60205;SDS011;46072;51.554;6.846;2022-11-21T11:19:27;175.32;;;44.78;;
60205;SDS011;46072;51.554;6.846;2022-11-21T11:29:17;124.03;;;35.33;;
60205;SDS011;46072;51.554;6.846;2022-11-21T11:31:52;113.50;;;35.70;;
60205;SDS011;46072;51.554;6.846;2022-11-21T11:34:21;103.07;;;32.03;;
60205;SDS011;46072;51.554;6.846;2022-11-21T11:37:02;91.18;;;29.77;;
60205;SDS011;46072;51.554;6.846;2022-11-21T11:42:31;91.80;;;31.23;;
60205;SDS011;46072;51.554;6.846;2022-11-21T11:48:14;76.93;;;27.35;;
60205;SDS011;46072;51.554;6.846;2022-11-21T11:50:45;80.10;;;27.80;;
60205;SDS011;46072;51.554;6.846;2022-11-21T11:53:16;76.63;;;27.83;;
60205;SDS011;46072;51.554;6.846;2022-11-21T11:55:48;86.32;;;29.38;;
60205;SDS011;46072;51.554;6.846;2022-11-21T12:00:57;79.75;;;28.92;;
60205;SDS011;46072;51.554;6.846;2022-11-21T12:03:37;62.10;;;22.92;;
60205;SDS011;46072;51.554;6.846;2022-11-21T12:06:10;60.58;;;23.45;;
60205;SDS011;46072;51.554;6.846;2022-11-21T12:08:45;55.97;;;20.25;;
60205;SDS011;46072;51.554;6.846;2022-11-21T12:11:34;55.40;;;20.65;;
60205;SDS011;46072;51.554;6.846;2022-11-21T12:23:23;51.45;;;20.45;;
60205;SDS011;46072;51.554;6.846;2022-11-21T12:34:04;44.83;;;18.95;;
60205;SDS011;46072;51.554;6.846;2022-11-21T12:39:57;38.38;;;16.90;;
60205;SDS011;46072;51.554;6.846;2022-11-21T12:45:25;39.28;;;18.15;;
60205;SDS011;46072;51.554;6.846;2022-11-21T12:53:53;41.10;;;17.85;;
60205;SDS011;46072;51.554;6.846;2022-11-21T13:05:34;30.67;;;15.20;;
60205;SDS011;46072;51.554;6.846;2022-11-21T13:08:05;48.25;;;17.05;;
60205;SDS011;46072;51.554;6.846;2022-11-21T13:10:35;39.70;;;17.52;;
60205;SDS011;46072;51.554;6.846;2022-11-21T13:15:42;42.63;;;17.88;;
60205;SDS011;46072;51.554;6.846;2022-11-21T13:21:07;41.63;;;16.75;;
60205;SDS011;46072;51.554;6.846;2022-11-21T13:24:06;46.95;;;18.17;;
60205;SDS011;46072;51.554;6.846;2022-11-21T13:29:06;37.78;;;15.68;;
60205;SDS011;46072;51.554;6.846;2022-11-21T13:31:39;45.58;;;17.42;;
60205;SDS011;46072;51.554;6.846;2022-11-21T13:37:02;38.90;;;16.67;;
60205;SDS011;46072;51.554;6.846;2022-11-21T13:39:30;41.70;;;16.83;;
60205;SDS011;46072;51.554;6.846;2022-11-21T13:41:58;48.72;;;19.48;;
60205;SDS011;46072;51.554;6.846;2022-11-21T13:44:51;40.83;;;17.58;;
60205;SDS011;46072;51.554;6.846;2022-11-21T14:08:37;37.25;;;16.58;;
60205;SDS011;46072;51.554;6.846;2022-11-21T14:11:25;44.90;;;18.02;;
60205;SDS011;46072;51.554;6.846;2022-11-21T14:13:57;38.78;;;15.38;;
60205;SDS011;46072;51.554;6.846;2022-11-21T14:19:00;36.40;;;16.23;;
60205;SDS011;46072;51.554;6.846;2022-11-21T14:21:29;35.47;;;17.50;;
60205;SDS011;46072;51.554;6.846;2022-11-21T14:23:58;37.35;;;16.85;;
60205;SDS011;46072;51.554;6.846;2022-11-21T14:26:30;42.33;;;16.90;;
60205;SDS011;46072;51.554;6.846;2022-11-21T14:29:23;40.85;;;16.10;;
60205;SDS011;46072;51.554;6.846;2022-11-21T14:31:52;32.58;;;15.82;;
60205;SDS011;46072;51.554;6.846;2022-11-21T14:34:25;34.88;;;17.42;;
60205;SDS011;46072;51.554;6.846;2022-11-21T14:36:54;35.25;;;16.48;;
60205;SDS011;46072;51.554;6.846;2022-11-21T14:39:25;43.05;;;17.48;;
60205;SDS011;46072;51.554;6.846;2022-11-21T14:42:14;38.08;;;15.65;;
60205;SDS011;46072;51.554;6.846;2022-11-21T14:44:41;34.60;;;16.63;;
60205;SDS011;46072;51.554;6.846;2022-11-21T14:49:50;38.95;;;17.55;;
60205;SDS011;46072;51.554;6.846;2022-11-21T14:52:18;40.70;;;16.98;;
60205;SDS011;46072;51.554;6.846;2022-11-21T14:54:48;43.90;;;17.40;;
60205;SDS011;46072;51.554;6.846;2022-11-21T14:57:40;48.85;;;18.23;;
60205;SDS011;46072;51.554;6.846;2022-11-21T15:00:07;40.20;;;18.55;;
60205;SDS011;46072;51.554;6.846;2022-11-21T15:02:57;48.80;;;18.42;;
60205;SDS011;46072;51.554;6.846;2022-11-21T15:05:28;41.22;;;17.27;;
60205;SDS011;46072;51.554;6.846;2022-11-21T15:08:20;43.85;;;17.90;;
60205;SDS011;46072;51.554;6.846;2022-11-21T15:11:08;47.17;;;18.13;;
60205;SDS011;46072;51.554;6.846;2022-11-21T15:13:34;42.30;;;17.73;;
60205;SDS011;46072;51.554;6.846;2022-11-21T15:16:21;36.90;;;16.05;;
60205;SDS011;46072;51.554;6.846;2022-11-21T15:18:48;47.13;;;17.95;;
60205;SDS011;46072;51.554;6.846;2022-11-21T15:21:15;48.25;;;18.75;;
60205;SDS011;46072;51.554;6.846;2022-11-21T15:23:41;46.50;;;17.80;;
60205;SDS011;46072;51.554;6.846;2022-11-21T15:28:58;44.58;;;18.42;;
60205;SDS011;46072;51.554;6.846;2022-11-21T15:31:25;45.20;;;18.15;;
60205;SDS011;46072;51.554;6.846;2022-11-21T15:33:59;42.20;;;17.17;;
60205;SDS011;46072;51.554;6.846;2022-11-21T15:37:03;40.15;;;17.40;;
60205;SDS011;46072;51.554;6.846;2022-11-21T15:39:33;46.38;;;17.48;;
60205;SDS011;46072;51.554;6.846;2022-11-21T15:47:45;41.72;;;16.92;;
60205;SDS011;46072;51.554;6.846;2022-11-21T15:50:12;35.40;;;15.32;;
60205;SDS011;46072;51.554;6.846;2022-11-21T15:52:43;38.67;;;15.32;;
60205;SDS011;46072;51.554;6.846;2022-11-21T15:55:11;44.25;;;16.70;;
60205;SDS011;46072;51.554;6.846;2022-11-21T15:57:43;40.03;;;16.45;;
60205;SDS011;46072;51.554;6.846;2022-11-21T16:00:10;39.05;;;15.82;;
60205;SDS011;46072;51.554;6.846;2022-11-21T16:02:37;38.22;;;15.75;;
60205;SDS011;46072;51.554;6.846;2022-11-21T16:05:03;40.15;;;17.08;;
60205;SDS011;46072;51.554;6.846;2022-11-21T16:07:30;41.42;;;16.67;;
60205;SDS011;46072;51.554;6.846;2022-11-21T16:09:56;43.75;;;17.10;;
60205;SDS011;46072;51.554;6.846;2022-11-21T16:12:23;40.42;;;17.83;;
60205;SDS011;46072;51.554;6.846;2022-11-21T16:14:49;41.17;;;17.17;;
60205;SDS011;46072;51.554;6.846;2022-11-21T16:17:16;44.95;;;17.70;;
60205;SDS011;46072;51.554;6.846;2022-11-21T16:19:42;50.70;;;18.33;;
60205;SDS011;46072;51.554;6.846;2022-11-21T16:22:08;44.33;;;18.95;;
60205;SDS011;46072;51.554;6.846;2022-11-21T16:24:35;48.70;;;21.30;;
60205;SDS011;46072;51.554;6.846;2022-11-21T16:27:01;44.97;;;19.92;;
60205;SDS011;46072;51.554;6.846;2022-11-21T16:29:28;45.42;;;21.15;;
60205;SDS011;46072;51.554;6.846;2022-11-21T16:31:55;44.42;;;19.48;;
60205;SDS011;46072;51.554;6.846;2022-11-21T16:34:21;49.50;;;19.90;;
60205;SDS011;46072;51.554;6.846;2022-11-21T16:36:48;43.60;;;18.02;;
60205;SDS011;46072;51.554;6.846;2022-11-21T16:39:15;45.05;;;24.23;;
60205;SDS011;46072;51.554;6.846;2022-11-21T16:41:43;44.15;;;19.50;;